sensor_id;sensor_type;location;lat;lon;timestamp;temperature;humidity
3709;DHT22;1870;53.996;10.784;2023-09-19T00:00:34;18.30;99.90
3709;DHT22;1870;53.996;10.784;2023-09-19T00:03:01;18.20;99.90
3709;DHT22;1870;53.996;10.784;2023-09-19T00:05:28;18.30;99.90
3709;DHT22;1870;53.996;10.784;2023-09-19T00:07:55;18.20;99.90
3709;DHT22;1870;53.996;10.784;2023-09-19T00:10:24;18.10;99.90
3709;DHT22;1870;53.996;10.784;2023-09-19T00:12:53;18.10;99.90
3709;DHT22;1870;53.996;10.784;2023-09-19T00:15:21;18.10;99.90
3709;DHT22;1870;53.996;10.784;2023-09-19T00:17:47;18.10;99.90
3709;DHT22;1870;53.996;10.784;2023-09-19T00:20:14;18.10;99.90
3709;DHT22;1870;53.996;10.784;2023-09-19T00:22:42;18.10;99.90
3709;DHT22;1870;53.996;10.784;2023-09-19T00:25:08;18.10;99.90
3709;DHT22;1870;53.996;10.784;2023-09-19T00:27:35;18.00;99.90
3709;DHT22;1870;53.996;10.784;2023-09-19T00:30:05;18.00;99.90
3709;DHT22;1870;53.996;10.784;2023-09-19T00:32:30;18.00;99.90
3709;DHT22;1870;53.996;10.784;2023-09-19T00:34:56;18.00;99.90
3709;DHT22;1870;53.996;10.784;2023-09-19T00:37:22;18.10;99.90
3709;DHT22;1870;53.996;10.784;2023-09-19T00:39:47;18.10;99.90
3709;DHT22;1870;53.996;10.784;2023-09-19T00:42:22;18.00;99.90
3709;DHT22;1870;53.996;10.784;2023-09-19T00:44:48;18.00;99.90
3709;DHT22;1870;53.996;10.784;2023-09-19T00:47:17;18.00;99.90
3709;DHT22;1870;53.996;10.784;2023-09-19T00:49:44;18.00;99.90
3709;DHT22;1870;53.996;10.784;2023-09-19T00:52:14;18.10;99.90
3709;DHT22;1870;53.996;10.784;2023-09-19T00:54:40;18.10;99.90
3709;DHT22;1870;53.996;10.784;2023-09-19T00:57:06;18.10;99.90
3709;DHT22;1870;53.996;10.784;2023-09-19T00:59:34;18.00;99.90
3709;DHT22;1870;53.996;10.784;2023-09-19T01:02:02;18.10;99.90
3709;DHT22;1870;53.996;10.784;2023-09-19T01:04:28;18.10;99.90
3709;DHT22;1870;53.996;10.784;2023-09-19T01:06:54;18.00;99.90
3709;DHT22;1870;53.996;10.784;2023-09-19T01:09:20;18.00;99.90
3709;DHT22;1870;53.996;10.784;2023-09-19T01:11:48;18.00;99.90
3709;DHT22;1870;53.996;10.784;2023-09-19T01:17:08;17.90;99.90
3709;DHT22;1870;53.996;10.784;2023-09-19T01:22:26;17.80;99.90
3709;DHT22;1870;53.996;10.784;2023-09-19T01:30:18;17.70;99.90
3709;DHT22;1870;53.996;10.784;2023-09-19T01:32:50;17.70;99.90
3709;DHT22;1870;53.996;10.784;2023-09-19T01:35:17;17.70;99.90
3709;DHT22;1870;53.996;10.784;2023-09-19T01:37:44;17.80;99.90
3709;DHT22;1870;53.996;10.784;2023-09-19T01:40:12;17.80;99.90
3709;DHT22;1870;53.996;10.784;2023-09-19T01:42:52;17.70;99.90
3709;DHT22;1870;53.996;10.784;2023-09-19T01:48:16;17.80;99.90
3709;DHT22;1870;53.996;10.784;2023-09-19T01:51:00;17.80;99.90
3709;DHT22;1870;53.996;10.784;2023-09-19T01:54:00;17.80;99.90
3709;DHT22;1870;53.996;10.784;2023-09-19T01:56:34;17.80;99.90
3709;DHT22;1870;53.996;10.784;2023-09-19T01:59:06;17.90;99.90
3709;DHT22;1870;53.996;10.784;2023-09-19T02:01:32;17.80;99.90
3709;DHT22;1870;53.996;10.784;2023-09-19T02:03:59;17.70;99.90
3709;DHT22;1870;53.996;10.784;2023-09-19T02:06:24;17.70;99.90
3709;DHT22;1870;53.996;10.784;2023-09-19T02:08:50;17.60;99.90
3709;DHT22;1870;53.996;10.784;2023-09-19T02:11:16;17.60;99.90
3709;DHT22;1870;53.996;10.784;2023-09-19T02:13:42;17.60;99.90
3709;DHT22;1870;53.996;10.784;2023-09-19T02:16:07;17.50;99.90
3709;DHT22;1870;53.996;10.784;2023-09-19T02:18:36;17.50;99.90
3709;DHT22;1870;53.996;10.784;2023-09-19T02:21:02;17.40;99.90
3709;DHT22;1870;53.996;10.784;2023-09-19T02:23:29;17.40;99.90
3709;DHT22;1870;53.996;10.784;2023-09-19T02:25:56;17.40;99.90
3709;DHT22;1870;53.996;10.784;2023-09-19T02:28:26;17.30;99.90
3709;DHT22;1870;53.996;10.784;2023-09-19T02:30:55;17.30;99.90
3709;DHT22;1870;53.996;10.784;2023-09-19T02:33:21;17.30;99.90
3709;DHT22;1870;53.996;10.784;2023-09-19T02:35:47;17.30;99.90
3709;DHT22;1870;53.996;10.784;2023-09-19T02:38:13;17.30;99.90
3709;DHT22;1870;53.996;10.784;2023-09-19T02:40:40;17.30;99.90
3709;DHT22;1870;53.996;10.784;2023-09-19T02:43:05;17.40;99.90
3709;DHT22;1870;53.996;10.784;2023-09-19T02:45:32;17.30;99.90
3709;DHT22;1870;53.996;10.784;2023-09-19T02:47:58;17.30;99.90
3709;DHT22;1870;53.996;10.784;2023-09-19T02:50:24;17.30;99.90
3709;DHT22;1870;53.996;10.784;2023-09-19T02:52:49;17.30;99.90
3709;DHT22;1870;53.996;10.784;2023-09-19T02:55:19;17.30;99.90
3709;DHT22;1870;53.996;10.784;2023-09-19T02:57:52;17.20;99.90
3709;DHT22;1870;53.996;10.784;2023-09-19T03:00:20;17.10;99.90
3709;DHT22;1870;53.996;10.784;2023-09-19T03:02:50;17.10;99.90
3709;DHT22;1870;53.996;10.784;2023-09-19T03:05:16;17.10;99.90
3709;DHT22;1870;53.996;10.784;2023-09-19T03:07:42;17.20;99.90
3709;DHT22;1870;53.996;10.784;2023-09-19T03:10:09;17.10;99.90
3709;DHT22;1870;53.996;10.784;2023-09-19T03:12:35;17.10;99.90
3709;DHT22;1870;53.996;10.784;2023-09-19T03:15:01;17.10;99.90
3709;DHT22;1870;53.996;10.784;2023-09-19T03:17:27;17.10;99.90
3709;DHT22;1870;53.996;10.784;2023-09-19T03:19:53;17.00;99.90
3709;DHT22;1870;53.996;10.784;2023-09-19T03:22:19;17.00;99.90
3709;DHT22;1870;53.996;10.784;2023-09-19T03:24:45;16.90;99.90
3709;DHT22;1870;53.996;10.784;2023-09-19T03:27:12;16.90;99.90
3709;DHT22;1870;53.996;10.784;2023-09-19T03:29:39;16.80;99.90
3709;DHT22;1870;53.996;10.784;2023-09-19T03:32:05;16.70;99.90
3709;DHT22;1870;53.996;10.784;2023-09-19T03:34:31;16.70;99.90
3709;DHT22;1870;53.996;10.784;2023-09-19T03:36:56;16.70;99.90
3709;DHT22;1870;53.996;10.784;2023-09-19T03:39:23;16.70;99.90
3709;DHT22;1870;53.996;10.784;2023-09-19T03:41:48;16.60;99.90
3709;DHT22;1870;53.996;10.784;2023-09-19T03:44:15;16.60;99.90
3709;DHT22;1870;53.996;10.784;2023-09-19T03:46:40;16.60;99.90
3709;DHT22;1870;53.996;10.784;2023-09-19T03:49:06;16.50;99.90
3709;DHT22;1870;53.996;10.784;2023-09-19T03:51:32;16.50;99.90
3709;DHT22;1870;53.996;10.784;2023-09-19T03:53:59;16.50;99.90
3709;DHT22;1870;53.996;10.784;2023-09-19T03:56:25;16.50;99.90
3709;DHT22;1870;53.996;10.784;2023-09-19T03:58:51;16.50;99.90
3709;DHT22;1870;53.996;10.784;2023-09-19T04:01:16;16.40;99.90
3709;DHT22;1870;53.996;10.784;2023-09-19T04:03:43;16.40;99.90
3709;DHT22;1870;53.996;10.784;2023-09-19T04:06:16;16.50;99.90
3709;DHT22;1870;53.996;10.784;2023-09-19T04:08:42;16.60;99.90
3709;DHT22;1870;53.996;10.784;2023-09-19T04:11:09;16.60;99.90
3709;DHT22;1870;53.996;10.784;2023-09-19T04:13:35;16.60;99.90
3709;DHT22;1870;53.996;10.784;2023-09-19T04:16:02;16.60;99.90
3709;DHT22;1870;53.996;10.784;2023-09-19T04:18:29;16.70;99.90
3709;DHT22;1870;53.996;10.784;2023-09-19T04:20:58;16.70;99.90
3709;DHT22;1870;53.996;10.784;2023-09-19T04:23:23;16.60;99.90
3709;DHT22;1870;53.996;10.784;2023-09-19T04:25:49;16.60;99.90
3709;DHT22;1870;53.996;10.784;2023-09-19T04:28:16;16.50;99.90
3709;DHT22;1870;53.996;10.784;2023-09-19T04:30:41;16.50;99.90
3709;DHT22;1870;53.996;10.784;2023-09-19T04:33:09;16.50;99.90
3709;DHT22;1870;53.996;10.784;2023-09-19T04:35:34;16.50;99.90
3709;DHT22;1870;53.996;10.784;2023-09-19T04:38:01;16.40;99.90
3709;DHT22;1870;53.996;10.784;2023-09-19T04:40:28;16.40;99.90
3709;DHT22;1870;53.996;10.784;2023-09-19T04:42:55;16.30;99.90
3709;DHT22;1870;53.996;10.784;2023-09-19T04:45:25;16.20;99.90
3709;DHT22;1870;53.996;10.784;2023-09-19T04:47:52;16.20;99.90
3709;DHT22;1870;53.996;10.784;2023-09-19T04:50:18;16.20;99.90
3709;DHT22;1870;53.996;10.784;2023-09-19T04:52:44;16.20;99.90
3709;DHT22;1870;53.996;10.784;2023-09-19T04:55:13;16.10;99.90
3709;DHT22;1870;53.996;10.784;2023-09-19T04:57:46;16.10;99.90
3709;DHT22;1870;53.996;10.784;2023-09-19T05:00:17;16.00;99.90
3709;DHT22;1870;53.996;10.784;2023-09-19T05:02:48;16.00;99.90
3709;DHT22;1870;53.996;10.784;2023-09-19T05:05:17;16.00;99.90
3709;DHT22;1870;53.996;10.784;2023-09-19T05:07:44;16.00;99.90
3709;DHT22;1870;53.996;10.784;2023-09-19T05:10:11;16.00;99.90
3709;DHT22;1870;53.996;10.784;2023-09-19T05:12:37;15.90;99.90
3709;DHT22;1870;53.996;10.784;2023-09-19T05:15:04;15.90;99.90
3709;DHT22;1870;53.996;10.784;2023-09-19T05:17:30;15.90;99.90
3709;DHT22;1870;53.996;10.784;2023-09-19T05:19:57;15.90;99.90
3709;DHT22;1870;53.996;10.784;2023-09-19T05:22:26;15.90;99.90
3709;DHT22;1870;53.996;10.784;2023-09-19T05:24:52;15.90;99.90
3709;DHT22;1870;53.996;10.784;2023-09-19T05:27:19;15.90;99.90
3709;DHT22;1870;53.996;10.784;2023-09-19T05:29:46;15.90;99.90
3709;DHT22;1870;53.996;10.784;2023-09-19T05:32:12;15.90;99.90
3709;DHT22;1870;53.996;10.784;2023-09-19T05:34:38;15.90;99.90
3709;DHT22;1870;53.996;10.784;2023-09-19T05:37:04;15.90;99.90
3709;DHT22;1870;53.996;10.784;2023-09-19T05:39:33;15.90;99.90
3709;DHT22;1870;53.996;10.784;2023-09-19T05:41:59;15.90;99.90
3709;DHT22;1870;53.996;10.784;2023-09-19T05:44:28;16.00;99.90
3709;DHT22;1870;53.996;10.784;2023-09-19T05:46:54;16.00;99.90
3709;DHT22;1870;53.996;10.784;2023-09-19T05:49:22;16.00;99.90
3709;DHT22;1870;53.996;10.784;2023-09-19T05:51:48;16.00;99.90
3709;DHT22;1870;53.996;10.784;2023-09-19T05:54:13;16.00;99.90
3709;DHT22;1870;53.996;10.784;2023-09-19T05:56:42;15.90;99.90
3709;DHT22;1870;53.996;10.784;2023-09-19T05:59:07;15.90;99.90
3709;DHT22;1870;53.996;10.784;2023-09-19T06:01:33;15.80;99.90
3709;DHT22;1870;53.996;10.784;2023-09-19T06:04:00;15.80;99.90
3709;DHT22;1870;53.996;10.784;2023-09-19T06:06:26;15.80;99.90
3709;DHT22;1870;53.996;10.784;2023-09-19T06:08:51;15.90;99.90
3709;DHT22;1870;53.996;10.784;2023-09-19T06:11:17;15.90;99.90
3709;DHT22;1870;53.996;10.784;2023-09-19T06:13:45;15.80;99.90
3709;DHT22;1870;53.996;10.784;2023-09-19T06:16:12;15.90;99.90
3709;DHT22;1870;53.996;10.784;2023-09-19T06:18:38;15.80;99.90
3709;DHT22;1870;53.996;10.784;2023-09-19T06:21:05;15.80;99.90
3709;DHT22;1870;53.996;10.784;2023-09-19T06:23:34;15.80;99.90
3709;DHT22;1870;53.996;10.784;2023-09-19T06:26:01;15.80;99.90
3709;DHT22;1870;53.996;10.784;2023-09-19T06:28:26;15.80;99.90
3709;DHT22;1870;53.996;10.784;2023-09-19T06:30:54;15.80;99.90
3709;DHT22;1870;53.996;10.784;2023-09-19T06:33:20;15.90;99.90
3709;DHT22;1870;53.996;10.784;2023-09-19T06:35:47;15.90;99.90
3709;DHT22;1870;53.996;10.784;2023-09-19T06:38:13;15.80;99.90
3709;DHT22;1870;53.996;10.784;2023-09-19T06:40:41;15.90;99.90
3709;DHT22;1870;53.996;10.784;2023-09-19T06:43:10;15.90;99.90
3709;DHT22;1870;53.996;10.784;2023-09-19T06:45:36;15.90;99.90
3709;DHT22;1870;53.996;10.784;2023-09-19T06:48:03;16.00;99.90
3709;DHT22;1870;53.996;10.784;2023-09-19T06:50:30;16.10;99.90
3709;DHT22;1870;53.996;10.784;2023-09-19T06:52:56;16.10;99.90
3709;DHT22;1870;53.996;10.784;2023-09-19T06:55:25;16.10;99.90
3709;DHT22;1870;53.996;10.784;2023-09-19T06:57:53;16.20;99.90
3709;DHT22;1870;53.996;10.784;2023-09-19T07:00:22;16.40;99.90
3709;DHT22;1870;53.996;10.784;2023-09-19T07:03:01;16.50;99.90
3709;DHT22;1870;53.996;10.784;2023-09-19T07:05:30;16.70;99.90
3709;DHT22;1870;53.996;10.784;2023-09-19T07:07:57;16.60;99.90
3709;DHT22;1870;53.996;10.784;2023-09-19T07:10:24;16.50;99.90
3709;DHT22;1870;53.996;10.784;2023-09-19T07:15:21;16.60;99.90
3709;DHT22;1870;53.996;10.784;2023-09-19T07:17:48;16.60;99.90
3709;DHT22;1870;53.996;10.784;2023-09-19T07:20:14;16.70;99.90
3709;DHT22;1870;53.996;10.784;2023-09-19T07:22:41;16.70;99.90
3709;DHT22;1870;53.996;10.784;2023-09-19T07:25:07;16.70;99.90
3709;DHT22;1870;53.996;10.784;2023-09-19T07:27:33;16.90;99.90
3709;DHT22;1870;53.996;10.784;2023-09-19T07:29:59;17.00;99.90
3709;DHT22;1870;53.996;10.784;2023-09-19T07:32:25;17.00;99.90
3709;DHT22;1870;53.996;10.784;2023-09-19T07:34:51;17.00;99.90
3709;DHT22;1870;53.996;10.784;2023-09-19T07:37:18;17.00;99.90
3709;DHT22;1870;53.996;10.784;2023-09-19T07:39:43;17.00;99.90
3709;DHT22;1870;53.996;10.784;2023-09-19T07:42:10;17.10;99.90
3709;DHT22;1870;53.996;10.784;2023-09-19T07:44:37;17.20;99.90
3709;DHT22;1870;53.996;10.784;2023-09-19T07:47:03;17.30;99.90
3709;DHT22;1870;53.996;10.784;2023-09-19T07:49:28;17.40;99.90
3709;DHT22;1870;53.996;10.784;2023-09-19T07:51:54;17.20;99.90
3709;DHT22;1870;53.996;10.784;2023-09-19T07:54:22;17.30;99.90
3709;DHT22;1870;53.996;10.784;2023-09-19T07:56:47;17.30;99.90
3709;DHT22;1870;53.996;10.784;2023-09-19T07:59:13;17.20;99.90
3709;DHT22;1870;53.996;10.784;2023-09-19T08:01:39;17.30;99.90
3709;DHT22;1870;53.996;10.784;2023-09-19T08:04:07;17.30;99.90
3709;DHT22;1870;53.996;10.784;2023-09-19T08:06:35;17.30;99.90
3709;DHT22;1870;53.996;10.784;2023-09-19T08:09:04;17.40;99.90
3709;DHT22;1870;53.996;10.784;2023-09-19T08:11:33;17.50;99.90
3709;DHT22;1870;53.996;10.784;2023-09-19T08:13:58;17.50;99.90
3709;DHT22;1870;53.996;10.784;2023-09-19T08:16:24;17.70;99.90
3709;DHT22;1870;53.996;10.784;2023-09-19T08:18:50;17.70;99.90
3709;DHT22;1870;53.996;10.784;2023-09-19T08:21:22;17.70;99.90
3709;DHT22;1870;53.996;10.784;2023-09-19T08:23:49;17.60;99.90
3709;DHT22;1870;53.996;10.784;2023-09-19T08:26:15;17.70;99.90
3709;DHT22;1870;53.996;10.784;2023-09-19T08:28:41;17.70;99.90
3709;DHT22;1870;53.996;10.784;2023-09-19T08:31:08;17.70;99.90
3709;DHT22;1870;53.996;10.784;2023-09-19T08:33:34;17.90;99.90
3709;DHT22;1870;53.996;10.784;2023-09-19T08:36:01;17.90;99.90
3709;DHT22;1870;53.996;10.784;2023-09-19T08:38:31;17.90;99.90
3709;DHT22;1870;53.996;10.784;2023-09-19T08:40:59;18.00;99.90
3709;DHT22;1870;53.996;10.784;2023-09-19T08:43:25;18.00;99.90
3709;DHT22;1870;53.996;10.784;2023-09-19T08:45:58;17.90;99.90
3709;DHT22;1870;53.996;10.784;2023-09-19T08:48:29;18.10;99.90
3709;DHT22;1870;53.996;10.784;2023-09-19T08:51:33;18.00;99.90
3709;DHT22;1870;53.996;10.784;2023-09-19T08:54:07;17.90;99.90
3709;DHT22;1870;53.996;10.784;2023-09-19T08:56:33;18.10;99.90
3709;DHT22;1870;53.996;10.784;2023-09-19T08:59:06;18.00;99.90
3709;DHT22;1870;53.996;10.784;2023-09-19T09:01:35;18.00;99.90
3709;DHT22;1870;53.996;10.784;2023-09-19T09:04:02;18.10;99.90
3709;DHT22;1870;53.996;10.784;2023-09-19T09:06:28;18.30;99.90
3709;DHT22;1870;53.996;10.784;2023-09-19T09:08:54;18.40;99.90
3709;DHT22;1870;53.996;10.784;2023-09-19T09:11:21;18.30;99.90
3709;DHT22;1870;53.996;10.784;2023-09-19T09:13:48;18.40;99.90
3709;DHT22;1870;53.996;10.784;2023-09-19T09:16:14;18.30;99.90
3709;DHT22;1870;53.996;10.784;2023-09-19T09:18:44;18.30;99.90
3709;DHT22;1870;53.996;10.784;2023-09-19T09:21:11;18.40;99.90
3709;DHT22;1870;53.996;10.784;2023-09-19T09:23:37;18.20;99.90
3709;DHT22;1870;53.996;10.784;2023-09-19T09:26:04;18.10;99.90
3709;DHT22;1870;53.996;10.784;2023-09-19T09:28:32;18.10;99.90
3709;DHT22;1870;53.996;10.784;2023-09-19T09:31:00;18.20;99.90
3709;DHT22;1870;53.996;10.784;2023-09-19T09:33:33;18.30;99.90
3709;DHT22;1870;53.996;10.784;2023-09-19T09:36:00;18.20;99.90
3709;DHT22;1870;53.996;10.784;2023-09-19T09:38:47;18.10;99.90
3709;DHT22;1870;53.996;10.784;2023-09-19T09:41:15;18.20;99.90
3709;DHT22;1870;53.996;10.784;2023-09-19T09:43:53;18.20;99.90
3709;DHT22;1870;53.996;10.784;2023-09-19T09:46:21;18.30;99.90
3709;DHT22;1870;53.996;10.784;2023-09-19T09:51:33;18.40;99.90
3709;DHT22;1870;53.996;10.784;2023-09-19T09:54:15;18.40;99.90
3709;DHT22;1870;53.996;10.784;2023-09-19T09:56:58;18.40;99.90
3709;DHT22;1870;53.996;10.784;2023-09-19T09:59:47;18.40;99.90
3709;DHT22;1870;53.996;10.784;2023-09-19T10:02:29;18.40;99.90
3709;DHT22;1870;53.996;10.784;2023-09-19T10:04:58;18.30;99.90
3709;DHT22;1870;53.996;10.784;2023-09-19T10:07:36;18.40;99.90
3709;DHT22;1870;53.996;10.784;2023-09-19T10:10:04;18.40;99.90
3709;DHT22;1870;53.996;10.784;2023-09-19T10:12:44;18.40;99.90
3709;DHT22;1870;53.996;10.784;2023-09-19T10:15:15;18.50;99.90
3709;DHT22;1870;53.996;10.784;2023-09-19T10:17:44;18.60;99.90
3709;DHT22;1870;53.996;10.784;2023-09-19T10:20:15;18.70;99.90
3709;DHT22;1870;53.996;10.784;2023-09-19T10:23:18;18.70;99.90
3709;DHT22;1870;53.996;10.784;2023-09-19T10:25:52;18.70;99.90
3709;DHT22;1870;53.996;10.784;2023-09-19T10:28:18;18.50;99.90
3709;DHT22;1870;53.996;10.784;2023-09-19T10:30:51;18.60;99.90
3709;DHT22;1870;53.996;10.784;2023-09-19T10:33:21;18.60;99.90
3709;DHT22;1870;53.996;10.784;2023-09-19T10:35:49;18.70;99.90
3709;DHT22;1870;53.996;10.784;2023-09-19T10:38:23;18.80;99.90
3709;DHT22;1870;53.996;10.784;2023-09-19T10:40:51;18.80;99.90
3709;DHT22;1870;53.996;10.784;2023-09-19T10:43:18;18.90;99.90
3709;DHT22;1870;53.996;10.784;2023-09-19T10:45:45;19.00;99.90
3709;DHT22;1870;53.996;10.784;2023-09-19T10:48:15;19.10;99.90
3709;DHT22;1870;53.996;10.784;2023-09-19T10:51:04;19.20;99.90
3709;DHT22;1870;53.996;10.784;2023-09-19T10:53:51;19.20;99.90
3709;DHT22;1870;53.996;10.784;2023-09-19T10:56:25;19.30;99.90
3709;DHT22;1870;53.996;10.784;2023-09-19T10:59:11;19.30;99.90
3709;DHT22;1870;53.996;10.784;2023-09-19T11:01:46;19.30;99.90
3709;DHT22;1870;53.996;10.784;2023-09-19T11:04:35;19.50;99.90
3709;DHT22;1870;53.996;10.784;2023-09-19T11:07:09;19.60;99.90
3709;DHT22;1870;53.996;10.784;2023-09-19T11:09:56;19.70;99.90
3709;DHT22;1870;53.996;10.784;2023-09-19T11:26:43;19.70;99.90
3709;DHT22;1870;53.996;10.784;2023-09-19T11:29:30;19.60;99.90
3709;DHT22;1870;53.996;10.784;2023-09-19T11:31:59;19.40;99.90
3709;DHT22;1870;53.996;10.784;2023-09-19T11:34:42;19.30;99.90
3709;DHT22;1870;53.996;10.784;2023-09-19T11:39:37;19.40;99.90
3709;DHT22;1870;53.996;10.784;2023-09-19T11:45:06;19.40;99.90
3709;DHT22;1870;53.996;10.784;2023-09-19T11:47:33;19.40;99.90
3709;DHT22;1870;53.996;10.784;2023-09-19T11:50:01;19.30;99.90
3709;DHT22;1870;53.996;10.784;2023-09-19T11:52:28;19.30;99.90
3709;DHT22;1870;53.996;10.784;2023-09-19T11:55:01;19.30;99.90
3709;DHT22;1870;53.996;10.784;2023-09-19T11:57:28;19.40;99.90
3709;DHT22;1870;53.996;10.784;2023-09-19T11:59:55;19.60;99.90
3709;DHT22;1870;53.996;10.784;2023-09-19T12:02:39;19.90;99.90
3709;DHT22;1870;53.996;10.784;2023-09-19T12:05:06;20.00;99.90
3709;DHT22;1870;53.996;10.784;2023-09-19T12:07:43;20.00;99.90
3709;DHT22;1870;53.996;10.784;2023-09-19T12:10:13;20.00;99.90
3709;DHT22;1870;53.996;10.784;2023-09-19T12:12:39;20.00;99.90
3709;DHT22;1870;53.996;10.784;2023-09-19T12:15:08;19.80;99.90
3709;DHT22;1870;53.996;10.784;2023-09-19T12:17:40;20.00;99.90
3709;DHT22;1870;53.996;10.784;2023-09-19T12:20:12;20.10;99.90
3709;DHT22;1870;53.996;10.784;2023-09-19T12:22:46;20.20;99.90
3709;DHT22;1870;53.996;10.784;2023-09-19T12:25:13;20.30;99.90
3709;DHT22;1870;53.996;10.784;2023-09-19T12:27:44;20.30;99.90
3709;DHT22;1870;53.996;10.784;2023-09-19T12:30:12;20.30;99.90
3709;DHT22;1870;53.996;10.784;2023-09-19T12:32:43;20.40;99.90
3709;DHT22;1870;53.996;10.784;2023-09-19T12:35:10;20.50;99.90
3709;DHT22;1870;53.996;10.784;2023-09-19T12:37:44;20.50;99.90
3709;DHT22;1870;53.996;10.784;2023-09-19T12:40:21;20.40;99.90
3709;DHT22;1870;53.996;10.784;2023-09-19T12:42:54;20.20;99.90
3709;DHT22;1870;53.996;10.784;2023-09-19T12:45:24;20.10;99.90
3709;DHT22;1870;53.996;10.784;2023-09-19T12:48:21;20.10;99.90
3709;DHT22;1870;53.996;10.784;2023-09-19T12:51:05;20.10;99.90
3709;DHT22;1870;53.996;10.784;2023-09-19T12:53:36;20.10;99.90
3709;DHT22;1870;53.996;10.784;2023-09-19T12:56:06;20.00;99.90
3709;DHT22;1870;53.996;10.784;2023-09-19T12:58:34;19.80;99.90
3709;DHT22;1870;53.996;10.784;2023-09-19T13:01:00;19.80;99.90
3709;DHT22;1870;53.996;10.784;2023-09-19T13:03:30;19.90;99.90
3709;DHT22;1870;53.996;10.784;2023-09-19T13:06:04;20.00;99.90
3709;DHT22;1870;53.996;10.784;2023-09-19T13:08:38;20.00;99.90
3709;DHT22;1870;53.996;10.784;2023-09-19T13:11:07;20.10;99.90
3709;DHT22;1870;53.996;10.784;2023-09-19T13:13:44;20.10;99.90
3709;DHT22;1870;53.996;10.784;2023-09-19T13:16:11;20.20;99.90
3709;DHT22;1870;53.996;10.784;2023-09-19T13:18:48;20.00;99.90
3709;DHT22;1870;53.996;10.784;2023-09-19T13:21:17;20.40;99.90
3709;DHT22;1870;53.996;10.784;2023-09-19T13:23:54;20.50;99.90
3709;DHT22;1870;53.996;10.784;2023-09-19T13:26:27;20.50;99.90
3709;DHT22;1870;53.996;10.784;2023-09-19T13:28:54;20.50;99.90
3709;DHT22;1870;53.996;10.784;2023-09-19T13:31:20;20.40;99.90
3709;DHT22;1870;53.996;10.784;2023-09-19T13:33:47;20.40;99.90
3709;DHT22;1870;53.996;10.784;2023-09-19T13:36:13;20.50;99.90
3709;DHT22;1870;53.996;10.784;2023-09-19T13:38:40;20.60;99.90
3709;DHT22;1870;53.996;10.784;2023-09-19T13:41:11;20.60;99.90
3709;DHT22;1870;53.996;10.784;2023-09-19T13:43:39;20.70;99.90
3709;DHT22;1870;53.996;10.784;2023-09-19T13:46:05;20.80;99.90
3709;DHT22;1870;53.996;10.784;2023-09-19T13:48:37;20.70;99.90
3709;DHT22;1870;53.996;10.784;2023-09-19T13:51:04;20.80;99.90
3709;DHT22;1870;53.996;10.784;2023-09-19T13:53:30;20.80;99.90
3709;DHT22;1870;53.996;10.784;2023-09-19T13:55:55;20.90;99.90
3709;DHT22;1870;53.996;10.784;2023-09-19T13:58:21;20.90;99.90
3709;DHT22;1870;53.996;10.784;2023-09-19T14:00:48;20.80;99.90
3709;DHT22;1870;53.996;10.784;2023-09-19T14:03:16;20.80;99.90
3709;DHT22;1870;53.996;10.784;2023-09-19T14:05:41;20.80;99.90
3709;DHT22;1870;53.996;10.784;2023-09-19T14:08:08;20.80;99.90
3709;DHT22;1870;53.996;10.784;2023-09-19T14:10:33;20.90;99.90
3709;DHT22;1870;53.996;10.784;2023-09-19T14:13:00;20.80;99.90
3709;DHT22;1870;53.996;10.784;2023-09-19T14:15:26;20.70;99.90
3709;DHT22;1870;53.996;10.784;2023-09-19T14:17:58;20.60;99.90
3709;DHT22;1870;53.996;10.784;2023-09-19T14:20:26;20.50;99.90
3709;DHT22;1870;53.996;10.784;2023-09-19T14:22:56;20.60;99.90
3709;DHT22;1870;53.996;10.784;2023-09-19T14:25:24;20.80;99.90
3709;DHT22;1870;53.996;10.784;2023-09-19T14:27:50;20.80;99.90
3709;DHT22;1870;53.996;10.784;2023-09-19T14:30:15;20.80;99.90
3709;DHT22;1870;53.996;10.784;2023-09-19T14:32:41;21.30;99.90
3709;DHT22;1870;53.996;10.784;2023-09-19T14:35:07;21.60;99.90
3709;DHT22;1870;53.996;10.784;2023-09-19T14:37:35;21.80;99.90
3709;DHT22;1870;53.996;10.784;2023-09-19T14:40:00;21.70;99.90
3709;DHT22;1870;53.996;10.784;2023-09-19T14:42:28;21.50;99.90
3709;DHT22;1870;53.996;10.784;2023-09-19T14:44:54;21.20;99.90
3709;DHT22;1870;53.996;10.784;2023-09-19T14:47:20;21.10;99.90
3709;DHT22;1870;53.996;10.784;2023-09-19T14:49:46;20.80;99.90
3709;DHT22;1870;53.996;10.784;2023-09-19T14:52:12;20.90;99.90
3709;DHT22;1870;53.996;10.784;2023-09-19T14:54:41;20.90;99.90
3709;DHT22;1870;53.996;10.784;2023-09-19T14:57:07;20.80;99.90
3709;DHT22;1870;53.996;10.784;2023-09-19T14:59:34;20.90;99.90
3709;DHT22;1870;53.996;10.784;2023-09-19T15:02:04;20.80;99.90
3709;DHT22;1870;53.996;10.784;2023-09-19T15:04:30;20.70;99.90
3709;DHT22;1870;53.996;10.784;2023-09-19T15:06:55;20.70;99.90
3709;DHT22;1870;53.996;10.784;2023-09-19T15:09:22;20.60;99.90
3709;DHT22;1870;53.996;10.784;2023-09-19T15:11:55;20.60;99.90
3709;DHT22;1870;53.996;10.784;2023-09-19T15:14:24;20.60;99.90
3709;DHT22;1870;53.996;10.784;2023-09-19T15:16:50;20.50;99.90
3709;DHT22;1870;53.996;10.784;2023-09-19T15:19:16;20.40;99.90
3709;DHT22;1870;53.996;10.784;2023-09-19T15:21:43;20.40;99.90
3709;DHT22;1870;53.996;10.784;2023-09-19T15:24:08;20.40;99.90
3709;DHT22;1870;53.996;10.784;2023-09-19T15:26:35;20.50;99.90
3709;DHT22;1870;53.996;10.784;2023-09-19T15:29:05;20.40;99.90
3709;DHT22;1870;53.996;10.784;2023-09-19T15:31:31;20.30;99.90
3709;DHT22;1870;53.996;10.784;2023-09-19T15:33:57;20.50;99.90
3709;DHT22;1870;53.996;10.784;2023-09-19T15:36:23;20.50;99.90
3709;DHT22;1870;53.996;10.784;2023-09-19T15:39:03;20.40;99.90
3709;DHT22;1870;53.996;10.784;2023-09-19T15:41:40;20.20;99.90
3709;DHT22;1870;53.996;10.784;2023-09-19T15:44:14;20.10;99.90
3709;DHT22;1870;53.996;10.784;2023-09-19T15:46:41;20.00;99.90
3709;DHT22;1870;53.996;10.784;2023-09-19T15:49:07;20.10;99.90
3709;DHT22;1870;53.996;10.784;2023-09-19T15:51:34;20.00;99.90
3709;DHT22;1870;53.996;10.784;2023-09-19T15:54:01;20.00;99.90
3709;DHT22;1870;53.996;10.784;2023-09-19T15:56:33;19.80;99.90
3709;DHT22;1870;53.996;10.784;2023-09-19T15:59:00;19.80;99.90
3709;DHT22;1870;53.996;10.784;2023-09-19T16:01:26;19.80;99.90
3709;DHT22;1870;53.996;10.784;2023-09-19T16:03:53;19.70;99.90
3709;DHT22;1870;53.996;10.784;2023-09-19T16:06:22;19.70;99.90
3709;DHT22;1870;53.996;10.784;2023-09-19T16:08:50;19.70;99.90
3709;DHT22;1870;53.996;10.784;2023-09-19T16:11:16;19.60;99.90
3709;DHT22;1870;53.996;10.784;2023-09-19T16:13:43;19.60;99.90
3709;DHT22;1870;53.996;10.784;2023-09-19T16:16:12;19.70;99.90
3709;DHT22;1870;53.996;10.784;2023-09-19T16:18:49;19.70;99.90
3709;DHT22;1870;53.996;10.784;2023-09-19T16:21:16;19.60;99.90
3709;DHT22;1870;53.996;10.784;2023-09-19T16:23:49;19.60;99.90
3709;DHT22;1870;53.996;10.784;2023-09-19T16:26:17;19.60;99.90
3709;DHT22;1870;53.996;10.784;2023-09-19T16:28:45;19.50;99.90
3709;DHT22;1870;53.996;10.784;2023-09-19T16:31:11;19.50;99.90
3709;DHT22;1870;53.996;10.784;2023-09-19T16:33:39;19.50;99.90